sensor_id;sensor_type;location;lat;lon;timestamp;pressure;altitude;pressure_sealevel;temperature;humidity
56721;BME280;53183;47.412;18.884;2023-01-15T00:00:47;99583.94;;;1.61;100.00
56721;BME280;53183;47.412;18.884;2023-01-15T00:03:35;99577.88;;;1.62;100.00
56721;BME280;53183;47.412;18.884;2023-01-15T00:06:18;99571.84;;;1.58;100.00
56721;BME280;53183;47.412;18.884;2023-01-15T00:08:54;99582.00;;;1.75;100.00
56721;BME280;53183;47.412;18.884;2023-01-15T00:11:32;99578.59;;;1.70;100.00
56721;BME280;53183;47.412;18.884;2023-01-15T00:14:01;99565.47;;;1.76;100.00
56721;BME280;53183;47.412;18.884;2023-01-15T00:16:44;99574.13;;;1.77;100.00
56721;BME280;53183;47.412;18.884;2023-01-15T00:19:20;99573.38;;;1.72;100.00
56721;BME280;53183;47.412;18.884;2023-01-15T00:21:51;99575.06;;;1.73;100.00
56721;BME280;53183;47.412;18.884;2023-01-15T00:24:27;99571.56;;;1.74;100.00
56721;BME280;53183;47.412;18.884;2023-01-15T00:27:18;99570.00;;;1.65;100.00
56721;BME280;53183;47.412;18.884;2023-01-15T00:30:14;99563.84;;;1.68;100.00
56721;BME280;53183;47.412;18.884;2023-01-15T00:32:48;99561.31;;;1.64;100.00
56721;BME280;53183;47.412;18.884;2023-01-15T00:35:31;99556.00;;;1.71;100.00
56721;BME280;53183;47.412;18.884;2023-01-15T00:38:09;99554.13;;;1.79;100.00
56721;BME280;53183;47.412;18.884;2023-01-15T00:40:46;99545.75;;;1.60;100.00
56721;BME280;53183;47.412;18.884;2023-01-15T00:43:25;99548.22;;;1.68;100.00
56721;BME280;53183;47.412;18.884;2023-01-15T00:46:03;99548.97;;;1.76;100.00
56721;BME280;53183;47.412;18.884;2023-01-15T00:48:36;99551.63;;;1.73;100.00
56721;BME280;53183;47.412;18.884;2023-01-15T00:51:07;99557.75;;;1.70;100.00
56721;BME280;53183;47.412;18.884;2023-01-15T00:53:42;99555.94;;;1.74;100.00
56721;BME280;53183;47.412;18.884;2023-01-15T00:56:20;99556.94;;;1.68;100.00
56721;BME280;53183;47.412;18.884;2023-01-15T00:58:56;99560.53;;;1.59;100.00
56721;BME280;53183;47.412;18.884;2023-01-15T01:01:39;99547.53;;;1.58;100.00
56721;BME280;53183;47.412;18.884;2023-01-15T01:04:17;99546.84;;;1.47;100.00
56721;BME280;53183;47.412;18.884;2023-01-15T01:06:58;99552.00;;;1.50;100.00
56721;BME280;53183;47.412;18.884;2023-01-15T01:09:30;99546.00;;;1.46;100.00
56721;BME280;53183;47.412;18.884;2023-01-15T01:12:13;99540.03;;;1.39;100.00
56721;BME280;53183;47.412;18.884;2023-01-15T01:14:44;99538.03;;;1.54;100.00
56721;BME280;53183;47.412;18.884;2023-01-15T01:17:23;99545.09;;;1.47;100.00
56721;BME280;53183;47.412;18.884;2023-01-15T01:20:03;99544.47;;;1.33;100.00
56721;BME280;53183;47.412;18.884;2023-01-15T01:22:50;99545.34;;;1.32;100.00
56721;BME280;53183;47.412;18.884;2023-01-15T01:25:30;99536.87;;;1.19;100.00
56721;BME280;53183;47.412;18.884;2023-01-15T01:28:06;99537.81;;;1.13;100.00
56721;BME280;53183;47.412;18.884;2023-01-15T01:30:48;99530.81;;;1.17;100.00
56721;BME280;53183;47.412;18.884;2023-01-15T01:33:27;99536.87;;;1.17;100.00
56721;BME280;53183;47.412;18.884;2023-01-15T01:36:07;99528.28;;;1.12;100.00
56721;BME280;53183;47.412;18.884;2023-01-15T01:38:52;99525.66;;;1.15;100.00
56721;BME280;53183;47.412;18.884;2023-01-15T01:41:25;99524.88;;;1.07;100.00
56721;BME280;53183;47.412;18.884;2023-01-15T01:47:20;99517.00;;;1.13;100.00
56721;BME280;53183;47.412;18.884;2023-01-15T01:50:07;99514.44;;;1.10;100.00
56721;BME280;53183;47.412;18.884;2023-01-15T01:52:52;99508.28;;;1.14;100.00
56721;BME280;53183;47.412;18.884;2023-01-15T01:55:35;99501.56;;;1.01;100.00
56721;BME280;53183;47.412;18.884;2023-01-15T01:58:13;99493.75;;;1.01;100.00
56721;BME280;53183;47.412;18.884;2023-01-15T02:00:56;99484.13;;;1.06;100.00
56721;BME280;53183;47.412;18.884;2023-01-15T02:03:42;99480.66;;;1.07;100.00
56721;BME280;53183;47.412;18.884;2023-01-15T02:06:24;99474.63;;;1.04;100.00
56721;BME280;53183;47.412;18.884;2023-01-15T02:09:10;99472.94;;;1.03;100.00
56721;BME280;53183;47.412;18.884;2023-01-15T02:11:48;99458.06;;;1.08;100.00
56721;BME280;53183;47.412;18.884;2023-01-15T02:14:55;99453.84;;;1.01;100.00
56721;BME280;53183;47.412;18.884;2023-01-15T02:18:08;99456.47;;;1.02;100.00
56721;BME280;53183;47.412;18.884;2023-01-15T02:21:00;99443.59;;;0.91;100.00
56721;BME280;53183;47.412;18.884;2023-01-15T02:27:15;99450.72;;;0.80;100.00
56721;BME280;53183;47.412;18.884;2023-01-15T02:30:39;99443.78;;;0.79;100.00
56721;BME280;53183;47.412;18.884;2023-01-15T02:33:22;99443.63;;;0.90;100.00
56721;BME280;53183;47.412;18.884;2023-01-15T02:36:01;99434.75;;;1.02;100.00
56721;BME280;53183;47.412;18.884;2023-01-15T02:38:49;99439.19;;;0.95;100.00
56721;BME280;53183;47.412;18.884;2023-01-15T02:41:35;99435.78;;;0.93;100.00
56721;BME280;53183;47.412;18.884;2023-01-15T02:44:15;99440.94;;;0.96;100.00
56721;BME280;53183;47.412;18.884;2023-01-15T02:46:57;99431.59;;;0.83;100.00
56721;BME280;53183;47.412;18.884;2023-01-15T02:49:45;99429.84;;;0.82;100.00
56721;BME280;53183;47.412;18.884;2023-01-15T02:52:41;99427.88;;;0.98;100.00
56721;BME280;53183;47.412;18.884;2023-01-15T02:55:23;99425.28;;;0.99;100.00
56721;BME280;53183;47.412;18.884;2023-01-15T02:58:01;99425.28;;;0.99;100.00
56721;BME280;53183;47.412;18.884;2023-01-15T03:00:46;99426.22;;;0.93;100.00
56721;BME280;53183;47.412;18.884;2023-01-15T03:09:11;99414.87;;;0.98;100.00
56721;BME280;53183;47.412;18.884;2023-01-15T03:15:16;99407.88;;;1.01;100.00
56721;BME280;53183;47.412;18.884;2023-01-15T03:18:22;99412.47;;;0.85;100.00
56721;BME280;53183;47.412;18.884;2023-01-15T03:21:04;99402.91;;;0.89;100.00
56721;BME280;53183;47.412;18.884;2023-01-15T03:23:50;99396.81;;;0.88;100.00
56721;BME280;53183;47.412;18.884;2023-01-15T03:26:26;99405.59;;;0.81;100.00
56721;BME280;53183;47.412;18.884;2023-01-15T03:28:58;99399.50;;;0.84;100.00
56721;BME280;53183;47.412;18.884;2023-01-15T03:31:30;99393.34;;;0.88;100.00
56721;BME280;53183;47.412;18.884;2023-01-15T03:34:10;99396.09;;;0.80;100.00
56721;BME280;53183;47.412;18.884;2023-01-15T03:36:48;99396.03;;;0.82;100.00
56721;BME280;53183;47.412;18.884;2023-01-15T03:39:26;99393.34;;;0.88;100.00
56721;BME280;53183;47.412;18.884;2023-01-15T03:42:25;99389.75;;;0.95;100.00
56721;BME280;53183;47.412;18.884;2023-01-15T03:45:21;99393.97;;;1.04;100.00
56721;BME280;53183;47.412;18.884;2023-01-15T03:48:19;99394.09;;;0.96;100.00
56721;BME280;53183;47.412;18.884;2023-01-15T03:51:17;99381.84;;;1.01;100.00
56721;BME280;53183;47.412;18.884;2023-01-15T03:53:57;99381.84;;;1.01;100.00
56721;BME280;53183;47.412;18.884;2023-01-15T03:56:50;99390.56;;;0.99;100.00
56721;BME280;53183;47.412;18.884;2023-01-15T03:59:48;99385.25;;;1.05;100.00
56721;BME280;53183;47.412;18.884;2023-01-15T04:02:32;99378.41;;;1.01;100.00
56721;BME280;53183;47.412;18.884;2023-01-15T04:05:17;99373.19;;;1.02;100.00
56721;BME280;53183;47.412;18.884;2023-01-15T04:07:59;99383.69;;;0.96;100.00
56721;BME280;53183;47.412;18.884;2023-01-15T04:10:59;99380.25;;;0.94;100.00
56721;BME280;53183;47.412;18.884;2023-01-15T04:13:38;99381.19;;;0.90;100.00
56721;BME280;53183;47.412;18.884;2023-01-15T04:16:30;99378.50;;;0.96;100.00
56721;BME280;53183;47.412;18.884;2023-01-15T04:19:01;99376.69;;;1.00;100.00
56721;BME280;53183;47.412;18.884;2023-01-15T04:21:46;99392.34;;;0.95;100.00
56721;BME280;53183;47.412;18.884;2023-01-15T04:24:30;99387.09;;;0.98;100.00
56721;BME280;53183;47.412;18.884;2023-01-15T04:27:04;99381.16;;;0.91;100.00
56721;BME280;53183;47.412;18.884;2023-01-15T04:29:45;99380.25;;;0.94;100.00
56721;BME280;53183;47.412;18.884;2023-01-15T04:32:21;99377.50;;;1.03;100.00
56721;BME280;53183;47.412;18.884;2023-01-15T04:34:52;99371.44;;;1.01;100.00
56721;BME280;53183;47.412;18.884;2023-01-15T04:37:27;99369.59;;;1.09;100.00
56721;BME280;53183;47.412;18.884;2023-01-15T04:39:58;99372.28;;;1.03;100.00
56721;BME280;53183;47.412;18.884;2023-01-15T04:42:57;99361.97;;;0.97;100.00
56721;BME280;53183;47.412;18.884;2023-01-15T04:45:48;99361.09;;;0.98;100.00
56721;BME280;53183;47.412;18.884;2023-01-15T04:48:25;99368.94;;;0.97;100.00
56721;BME280;53183;47.412;18.884;2023-01-15T04:51:03;99370.53;;;1.04;100.00
56721;BME280;53183;47.412;18.884;2023-01-15T04:53:37;99360.97;;;1.04;100.00
56721;BME280;53183;47.412;18.884;2023-01-15T04:56:14;99356.72;;;0.99;100.00
56721;BME280;53183;47.412;18.884;2023-01-15T04:58:54;99363.63;;;1.01;100.00
56721;BME280;53183;47.412;18.884;2023-01-15T05:01:29;99347.06;;;1.07;100.00
56721;BME280;53183;47.412;18.884;2023-01-15T05:04:02;99348.03;;;1.01;100.00
56721;BME280;53183;47.412;18.884;2023-01-15T05:06:39;99349.81;;;0.98;100.00
56721;BME280;53183;47.412;18.884;2023-01-15T05:09:13;99344.56;;;1.02;100.00
56721;BME280;53183;47.412;18.884;2023-01-15T05:11:49;99352.41;;;0.99;100.00
56721;BME280;53183;47.412;18.884;2023-01-15T05:14:33;99341.72;;;1.14;100.00
56721;BME280;53183;47.412;18.884;2023-01-15T05:17:14;99345.41;;;1.01;100.00
56721;BME280;53183;47.412;18.884;2023-01-15T05:19:50;99342.81;;;1.03;100.00
56721;BME280;53183;47.412;18.884;2023-01-15T05:22:33;99341.97;;;1.02;100.00
56721;BME280;53183;47.412;18.884;2023-01-15T05:25:14;99329.59;;;1.13;100.00
56721;BME280;53183;47.412;18.884;2023-01-15T05:27:45;99328.81;;;1.08;100.00
56721;BME280;53183;47.412;18.884;2023-01-15T05:30:16;99332.16;;;1.15;100.00
56721;BME280;53183;47.412;18.884;2023-01-15T05:32:56;99314.87;;;1.11;100.00
56721;BME280;53183;47.412;18.884;2023-01-15T05:35:28;99311.31;;;1.16;100.00
56721;BME280;53183;47.412;18.884;2023-01-15T05:37:59;99312.34;;;1.09;100.00
56721;BME280;53183;47.412;18.884;2023-01-15T05:40:38;99304.59;;;1.05;100.00
56721;BME280;53183;47.412;18.884;2023-01-15T05:43:14;99312.44;;;1.03;100.00
56721;BME280;53183;47.412;18.884;2023-01-15T05:45:45;99305.38;;;1.10;100.00
56721;BME280;53183;47.412;18.884;2023-01-15T05:48:15;99299.25;;;1.12;100.00
56721;BME280;53183;47.412;18.884;2023-01-15T05:51:00;99288.81;;;1.14;100.00
56721;BME280;53183;47.412;18.884;2023-01-15T05:53:43;99285.47;;;1.07;100.00
56721;BME280;53183;47.412;18.884;2023-01-15T05:56:23;99295.03;;;1.05;100.00
56721;BME280;53183;47.412;18.884;2023-01-15T05:58:58;99282.91;;;1.04;100.00
56721;BME280;53183;47.412;18.884;2023-01-15T06:01:40;99288.00;;;1.10;100.00
56721;BME280;53183;47.412;18.884;2023-01-15T06:04:13;99291.41;;;1.15;100.00
56721;BME280;53183;47.412;18.884;2023-01-15T06:06:48;99278.47;;;1.11;100.00
56721;BME280;53183;47.412;18.884;2023-01-15T06:09:28;99271.50;;;1.13;100.00
56721;BME280;53183;47.412;18.884;2023-01-15T06:12:11;99276.53;;;1.21;100.00
56721;BME280;53183;47.412;18.884;2023-01-15T06:14:52;99268.72;;;1.22;100.00
56721;BME280;53183;47.412;18.884;2023-01-15T06:17:27;99268.56;;;1.30;100.00
56721;BME280;53183;47.412;18.884;2023-01-15T06:20:03;99278.06;;;1.31;100.00
56721;BME280;53183;47.412;18.884;2023-01-15T06:22:35;99275.63;;;1.22;100.00
56721;BME280;53183;47.412;18.884;2023-01-15T06:25:14;99272.13;;;1.26;100.00
56721;BME280;53183;47.412;18.884;2023-01-15T06:27:57;99285.94;;;1.28;100.00
56721;BME280;53183;47.412;18.884;2023-01-15T06:30:28;99277.22;;;1.32;100.00
56721;BME280;53183;47.412;18.884;2023-01-15T06:33:02;99278.84;;;1.36;100.00
56721;BME280;53183;47.412;18.884;2023-01-15T06:35:38;99279.59;;;1.43;100.00
56721;BME280;53183;47.412;18.884;2023-01-15T06:38:07;99285.75;;;1.37;100.00
56721;BME280;53183;47.412;18.884;2023-01-15T06:40:50;99290.06;;;1.38;100.00
56721;BME280;53183;47.412;18.884;2023-01-15T06:43:26;99291.47;;;1.54;100.00
56721;BME280;53183;47.412;18.884;2023-01-15T06:46:15;99287.84;;;1.63;100.00
56721;BME280;53183;47.412;18.884;2023-01-15T06:49:07;99283.66;;;1.54;100.00
56721;BME280;53183;47.412;18.884;2023-01-15T06:51:45;99274.03;;;1.59;100.00
56721;BME280;53183;47.412;18.884;2023-01-15T06:54:20;99279.13;;;1.64;100.00
56721;BME280;53183;47.412;18.884;2023-01-15T06:56:52;99267.84;;;1.63;100.00
56721;BME280;53183;47.412;18.884;2023-01-15T06:59:22;99270.66;;;1.54;100.00
56721;BME280;53183;47.412;18.884;2023-01-15T07:02:01;99271.31;;;1.66;100.00
56721;BME280;53183;47.412;18.884;2023-01-15T07:04:42;99270.28;;;1.73;100.00
56721;BME280;53183;47.412;18.884;2023-01-15T07:07:19;99266.63;;;1.81;100.00
56721;BME280;53183;47.412;18.884;2023-01-15T07:09:52;99267.66;;;1.73;100.00
56721;BME280;53183;47.412;18.884;2023-01-15T07:12:24;99261.44;;;1.80;100.00
56721;BME280;53183;47.412;18.884;2023-01-15T07:15:00;99270.03;;;1.83;100.00
56721;BME280;53183;47.412;18.884;2023-01-15T07:17:41;99268.06;;;1.95;100.00
56721;BME280;53183;47.412;18.884;2023-01-15T07:20:16;99274.06;;;1.98;100.00
56721;BME280;53183;47.412;18.884;2023-01-15T07:22:56;99261.84;;;2.00;100.00
56721;BME280;53183;47.412;18.884;2023-01-15T07:25:35;99266.09;;;2.04;100.00
56721;BME280;53183;47.412;18.884;2023-01-15T07:28:22;99272.91;;;2.10;100.00
56721;BME280;53183;47.412;18.884;2023-01-15T07:30:59;99268.53;;;2.10;100.00
56721;BME280;53183;47.412;18.884;2023-01-15T07:33:29;99265.81;;;2.17;100.00
56721;BME280;53183;47.412;18.884;2023-01-15T07:36:04;99256.09;;;2.23;100.00
56721;BME280;53183;47.412;18.884;2023-01-15T07:38:40;99254.25;;;2.27;100.00
56721;BME280;53183;47.412;18.884;2023-01-15T07:41:15;99254.03;;;2.36;100.00
56721;BME280;53183;47.412;18.884;2023-01-15T07:44:03;99251.34;;;2.41;100.00
56721;BME280;53183;47.412;18.884;2023-01-15T07:47:01;99255.78;;;2.37;100.00
56721;BME280;53183;47.412;18.884;2023-01-15T07:49:56;99243.47;;;2.42;100.00
56721;BME280;53183;47.412;18.884;2023-01-15T07:52:32;99244.03;;;2.55;100.00
56721;BME280;53183;47.412;18.884;2023-01-15T07:55:09;99245.87;;;2.50;100.00
56721;BME280;53183;47.412;18.884;2023-01-15T07:57:43;99243.19;;;2.54;100.00
56721;BME280;53183;47.412;18.884;2023-01-15T08:00:18;99238.72;;;2.58;100.00
56721;BME280;53183;47.412;18.884;2023-01-15T08:02:51;99239.59;;;2.58;100.00
56721;BME280;53183;47.412;18.884;2023-01-15T08:05:25;99234.22;;;2.65;100.00
56721;BME280;53183;47.412;18.884;2023-01-15T08:07:59;99220.94;;;2.74;100.00
56721;BME280;53183;47.412;18.884;2023-01-15T08:10:40;99241.75;;;2.75;100.00
56721;BME280;53183;47.412;18.884;2023-01-15T08:13:37;99243.50;;;2.76;100.00
56721;BME280;53183;47.412;18.884;2023-01-15T08:16:27;99234.06;;;2.71;100.00
56721;BME280;53183;47.412;18.884;2023-01-15T08:19:01;99247.59;;;2.85;100.00
56721;BME280;53183;47.412;18.884;2023-01-15T08:21:36;99239.75;;;2.85;100.00
56721;BME280;53183;47.412;18.884;2023-01-15T08:24:15;99239.84;;;2.82;100.00
56721;BME280;53183;47.412;18.884;2023-01-15T08:26:47;99235.59;;;2.78;100.00
56721;BME280;53183;47.412;18.884;2023-01-15T08:29:33;99239.13;;;2.77;100.00
56721;BME280;53183;47.412;18.884;2023-01-15T08:32:09;99245.13;;;2.80;100.00
56721;BME280;53183;47.412;18.884;2023-01-15T08:34:47;99243.22;;;2.86;100.00
56721;BME280;53183;47.412;18.884;2023-01-15T08:37:24;99243.06;;;2.92;100.00
56721;BME280;53183;47.412;18.884;2023-01-15T08:40:11;99237.75;;;2.96;100.00
56721;BME280;53183;47.412;18.884;2023-01-15T08:42:48;99249.28;;;2.88;100.00
56721;BME280;53183;47.412;18.884;2023-01-15T08:45:30;99236.09;;;2.92;100.00
56721;BME280;53183;47.412;18.884;2023-01-15T08:48:07;99231.47;;;3.02;100.00
56721;BME280;53183;47.412;18.884;2023-01-15T08:50:43;99227.69;;;3.14;100.00
56721;BME280;53183;47.412;18.884;2023-01-15T08:53:30;99232.50;;;3.27;100.00
56721;BME280;53183;47.412;18.884;2023-01-15T08:56:16;99234.88;;;3.37;100.00
56721;BME280;53183;47.412;18.884;2023-01-15T08:58:52;99237.16;;;3.47;100.00
56721;BME280;53183;47.412;18.884;2023-01-15T09:01:30;99225.22;;;3.39;100.00
56721;BME280;53183;47.412;18.884;2023-01-15T09:04:15;99225.00;;;3.46;100.00
56721;BME280;53183;47.412;18.884;2023-01-15T09:06:53;99219.56;;;3.54;100.00
56721;BME280;53183;47.412;18.884;2023-01-15T09:09:24;99223.28;;;3.45;100.00
56721;BME280;53183;47.412;18.884;2023-01-15T09:12:03;99208.50;;;3.46;100.00
56721;BME280;53183;47.412;18.884;2023-01-15T09:14:36;99210.13;;;3.48;100.00
56721;BME280;53183;47.412;18.884;2023-01-15T09:17:31;99206.66;;;3.48;100.00
56721;BME280;53183;47.412;18.884;2023-01-15T09:20:11;99200.59;;;3.47;100.00
56721;BME280;53183;47.412;18.884;2023-01-15T09:22:57;99198.88;;;3.46;100.00
56721;BME280;53183;47.412;18.884;2023-01-15T09:25:34;99191.81;;;3.50;100.00
56721;BME280;53183;47.412;18.884;2023-01-15T09:28:14;99184.75;;;3.53;100.00
56721;BME280;53183;47.412;18.884;2023-01-15T09:30:45;99177.16;;;3.46;100.00
56721;BME280;53183;47.412;18.884;2023-01-15T09:33:19;99174.31;;;3.52;100.00
56721;BME280;53183;47.412;18.884;2023-01-15T09:35:55;99171.16;;;3.70;100.00
56721;BME280;53183;47.412;18.884;2023-01-15T09:38:33;99159.47;;;3.82;100.00
56721;BME280;53183;47.412;18.884;2023-01-15T09:41:16;99161.75;;;3.93;100.00
56721;BME280;53183;47.412;18.884;2023-01-15T09:47:31;99155.87;;;4.13;100.00
56721;BME280;53183;47.412;18.884;2023-01-15T09:53:31;99141.00;;;4.40;100.00
56721;BME280;53183;47.412;18.884;2023-01-15T09:56:22;99143.38;;;4.47;100.00
56721;BME280;53183;47.412;18.884;2023-01-15T09:59:02;99134.97;;;4.63;100.00
56721;BME280;53183;47.412;18.884;2023-01-15T10:01:49;99122.59;;;4.68;100.00
56721;BME280;53183;47.412;18.884;2023-01-15T10:04:41;99126.72;;;4.74;100.00
56721;BME280;53183;47.412;18.884;2023-01-15T10:10:34;99109.28;;;4.74;100.00
56721;BME280;53183;47.412;18.884;2023-01-15T10:13:37;99100.69;;;4.70;100.00
56721;BME280;53183;47.412;18.884;2023-01-15T10:16:25;99088.97;;;4.81;100.00
56721;BME280;53183;47.412;18.884;2023-01-15T10:19:03;99077.13;;;4.94;100.00
56721;BME280;53183;47.412;18.884;2023-01-15T10:24:47;99084.03;;;5.18;100.00
56721;BME280;53183;47.412;18.884;2023-01-15T10:27:28;99071.84;;;5.39;100.00
56721;BME280;53183;47.412;18.884;2023-01-15T10:33:25;99059.44;;;5.45;100.00
56721;BME280;53183;47.412;18.884;2023-01-15T10:36:17;99061.44;;;5.38;100.00
56721;BME280;53183;47.412;18.884;2023-01-15T10:39:21;99056.41;;;5.33;100.00
56721;BME280;53183;47.412;18.884;2023-01-15T10:45:23;99042.31;;;5.14;100.00
56721;BME280;53183;47.412;18.884;2023-01-15T10:48:08;99024.78;;;5.38;100.00
56721;BME280;53183;47.412;18.884;2023-01-15T10:50:48;99030.38;;;5.51;100.00
56721;BME280;53183;47.412;18.884;2023-01-15T10:53:39;99024.97;;;5.33;100.00
56721;BME280;53183;47.412;18.884;2023-01-15T10:59:23;99014.66;;;5.51;100.00
56721;BME280;53183;47.412;18.884;2023-01-15T11:02:32;98994.31;;;5.56;100.00
56721;BME280;53183;47.412;18.884;2023-01-15T11:05:16;99002.37;;;5.51;100.00
56721;BME280;53183;47.412;18.884;2023-01-15T11:08:02;98994.06;;;5.41;100.00
56721;BME280;53183;47.412;18.884;2023-01-15T11:14:44;98982.63;;;5.64;100.00
56721;BME280;53183;47.412;18.884;2023-01-15T11:17:47;98968.19;;;5.75;100.00
56721;BME280;53183;47.412;18.884;2023-01-15T11:20:45;98978.47;;;5.59;100.00
56721;BME280;53183;47.412;18.884;2023-01-15T11:23:20;98969.31;;;5.69;100.00
56721;BME280;53183;47.412;18.884;2023-01-15T11:26:00;98974.50;;;5.71;100.00
56721;BME280;53183;47.412;18.884;2023-01-15T11:28:40;98964.22;;;5.66;100.00
56721;BME280;53183;47.412;18.884;2023-01-15T11:31:15;98953.72;;;5.66;99.37
56721;BME280;53183;47.412;18.884;2023-01-15T11:34:02;98955.31;;;5.70;99.65
56721;BME280;53183;47.412;18.884;2023-01-15T11:36:42;98959.63;;;5.71;98.16
56721;BME280;53183;47.412;18.884;2023-01-15T11:39:24;98945.44;;;5.75;99.52
56721;BME280;53183;47.412;18.884;2023-01-15T11:42:04;98945.00;;;5.86;98.69
56721;BME280;53183;47.412;18.884;2023-01-15T11:45:00;98927.91;;;5.98;97.78
56721;BME280;53183;47.412;18.884;2023-01-15T11:47:54;98913.59;;;6.05;96.98
56721;BME280;53183;47.412;18.884;2023-01-15T11:51:00;98901.72;;;6.17;97.58
56721;BME280;53183;47.412;18.884;2023-01-15T11:53:49;98893.72;;;6.20;96.68
56721;BME280;53183;47.412;18.884;2023-01-15T11:56:26;98880.31;;;6.26;96.82
56721;BME280;53183;47.412;18.884;2023-01-15T11:59:09;98883.25;;;6.18;95.94
56721;BME280;53183;47.412;18.884;2023-01-15T12:01:57;98874.97;;;6.27;95.80
56721;BME280;53183;47.412;18.884;2023-01-15T12:07:26;98859.31;;;6.26;96.12
56721;BME280;53183;47.412;18.884;2023-01-15T12:10:32;98854.91;;;6.26;95.63
56721;BME280;53183;47.412;18.884;2023-01-15T12:20:28;98867.59;;;6.17;96.19
56721;BME280;53183;47.412;18.884;2023-01-15T12:26:26;98854.69;;;6.31;96.31
56721;BME280;53183;47.412;18.884;2023-01-15T12:29:23;98853.06;;;6.28;95.83
56721;BME280;53183;47.412;18.884;2023-01-15T12:32:14;98853.66;;;6.35;95.16
56721;BME280;53183;47.412;18.884;2023-01-15T12:35:06;98850.78;;;6.40;94.34
56721;BME280;53183;47.412;18.884;2023-01-15T12:38:17;98843.22;;;6.33;94.67
56721;BME280;53183;47.412;18.884;2023-01-15T12:41:09;98841.69;;;6.47;95.10
56721;BME280;53183;47.412;18.884;2023-01-15T12:43:56;98844.31;;;6.66;93.70
56721;BME280;53183;47.412;18.884;2023-01-15T12:47:02;98845.06;;;6.68;92.58
56721;BME280;53183;47.412;18.884;2023-01-15T12:49:51;98846.94;;;6.66;91.17
56721;BME280;53183;47.412;18.884;2023-01-15T12:52:35;98839.91;;;6.66;90.89
56721;BME280;53183;47.412;18.884;2023-01-15T12:55:28;98833.44;;;6.73;91.29
56721;BME280;53183;47.412;18.884;2023-01-15T12:58:11;98831.72;;;6.72;91.47
56721;BME280;53183;47.412;18.884;2023-01-15T13:00:48;98836.06;;;6.73;90.54
56721;BME280;53183;47.412;18.884;2023-01-15T13:03:45;98835.13;;;6.74;91.19
56721;BME280;53183;47.412;18.884;2023-01-15T13:06:26;98837.69;;;6.76;91.54
56721;BME280;53183;47.412;18.884;2023-01-15T13:11:49;98837.97;;;6.70;90.70
56721;BME280;53183;47.412;18.884;2023-01-15T13:14:31;98832.50;;;6.74;90.06
56721;BME280;53183;47.412;18.884;2023-01-15T13:20:26;98830.81;;;6.73;88.70
56721;BME280;53183;47.412;18.884;2023-01-15T13:29:34;98807.72;;;6.80;89.07
56721;BME280;53183;47.412;18.884;2023-01-15T13:35:05;98805.88;;;6.82;88.87
56721;BME280;53183;47.412;18.884;2023-01-15T13:37:44;98803.41;;;6.79;88.25
56721;BME280;53183;47.412;18.884;2023-01-15T13:40:38;98795.38;;;6.82;89.15
56721;BME280;53183;47.412;18.884;2023-01-15T13:43:35;98792.81;;;6.80;89.20
56721;BME280;53183;47.412;18.884;2023-01-15T13:46:11;98800.06;;;6.75;89.01
56721;BME280;53183;47.412;18.884;2023-01-15T13:48:46;98786.53;;;6.66;88.57
56721;BME280;53183;47.412;18.884;2023-01-15T13:51:32;98789.22;;;6.64;87.56
56721;BME280;53183;47.412;18.884;2023-01-15T13:54:18;98784.78;;;6.66;88.17
56721;BME280;53183;47.412;18.884;2023-01-15T13:56:54;98784.06;;;6.63;87.96
56721;BME280;53183;47.412;18.884;2023-01-15T13:59:44;98783.13;;;6.64;88.43
56721;BME280;53183;47.412;18.884;2023-01-15T14:02:33;98783.38;;;6.59;88.19
56721;BME280;53183;47.412;18.884;2023-01-15T14:05:34;98778.97;;;6.60;88.65
56721;BME280;53183;47.412;18.884;2023-01-15T14:08:15;98781.75;;;6.56;88.15
56721;BME280;53183;47.412;18.884;2023-01-15T14:10:52;98783.97;;;6.47;88.44
56721;BME280;53183;47.412;18.884;2023-01-15T14:17:05;98773.41;;;6.48;88.67
56721;BME280;53183;47.412;18.884;2023-01-15T14:32:41;98769.50;;;6.38;89.47
56721;BME280;53183;47.412;18.884;2023-01-15T14:35:21;98769.59;;;6.37;89.51
56721;BME280;53183;47.412;18.884;2023-01-15T14:37:58;98756.59;;;6.33;89.36
56721;BME280;53183;47.412;18.884;2023-01-15T14:40:58;98759.19;;;6.35;89.13
56721;BME280;53183;47.412;18.884;2023-01-15T14:43:34;98759.63;;;6.26;89.71
56721;BME280;53183;47.412;18.884;2023-01-15T14:46:20;98755.75;;;6.33;89.21
56721;BME280;53183;47.412;18.884;2023-01-15T14:49:00;98758.44;;;6.31;89.16
56721;BME280;53183;47.412;18.884;2023-01-15T14:51:47;98759.63;;;6.26;89.43
56721;BME280;53183;47.412;18.884;2023-01-15T14:54:21;98758.59;;;6.28;89.80
56721;BME280;53183;47.412;18.884;2023-01-15T14:56:56;98756.69;;;6.32;89.87
56721;BME280;53183;47.412;18.884;2023-01-15T14:59:47;98760.31;;;6.29;90.00
56721;BME280;53183;47.412;18.884;2023-01-15T15:02:27;98757.34;;;6.18;90.32
56721;BME280;53183;47.412;18.884;2023-01-15T15:05:16;98758.03;;;6.22;91.01
56721;BME280;53183;47.412;18.884;2023-01-15T15:07:56;98748.63;;;6.18;90.54
56721;BME280;53183;47.412;18.884;2023-01-15T15:10:39;98748.28;;;6.25;91.00
56721;BME280;53183;47.412;18.884;2023-01-15T15:13:30;98748.09;;;6.28;91.30
56721;BME280;53183;47.412;18.884;2023-01-15T15:16:27;98738.81;;;6.21;91.45
56721;BME280;53183;47.412;18.884;2023-01-15T15:19:58;98735.16;;;6.25;91.37
56721;BME280;53183;47.412;18.884;2023-01-15T15:22:32;98734.91;;;6.30;91.36
56721;BME280;53183;47.412;18.884;2023-01-15T15:25:09;98729.59;;;6.31;91.10
56721;BME280;53183;47.412;18.884;2023-01-15T15:28:09;98728.69;;;6.32;91.21
56721;BME280;53183;47.412;18.884;2023-01-15T15:34:34;98723.72;;;6.26;91.62
56721;BME280;53183;47.412;18.884;2023-01-15T15:37:24;98724.34;;;6.31;91.34
56721;BME280;53183;47.412;18.884;2023-01-15T15:40:24;98722.03;;;6.25;91.96
56721;BME280;53183;47.412;18.884;2023-01-15T15:43:26;98721.00;;;6.28;92.81